Time;durP1;ratioP1;P1;durP2;ratioP2;P2;SDS_P1;SDS_P2;PMS_P1;PMS_P2;Temp;Humidity;BMP_temperature;BMP_pressure;BME280_temperature;BME280_humidity;BME280_pressure;Samples;Min_cycle;Max_cycle;Signal;HPM_P1;HPM_P2
2021/05/03 00:00:22;;;;;;;9.00;3.58;;;8.40;58.50;;;;;;5037420;28;20151;-60
2021/05/03 00:02:47;;;;;;;12.30;3.30;;;8.40;58.70;;;;;;5051942;28;20028;-60
2021/05/03 00:05:25;;;;;;;6.05;3.00;;;8.50;59.10;;;;;;5047395;28;20133;-61
2021/05/03 00:07:51;;;;;;;6.57;3.22;;;8.60;59.30;;;;;;5038469;28;20047;-61
2021/05/03 00:10:20;;;;;;;4.47;2.92;;;8.60;59.50;;;;;;5046388;28;20040;-61
2021/05/03 00:12:50;;;;;;;6.10;3.28;;;8.70;59.60;;;;;;5047097;28;20071;-61
2021/05/03 00:15:18;;;;;;;3.58;3.03;;;8.80;59.80;;;;;;5046549;28;20077;-61
2021/05/03 00:17:49;;;;;;;5.95;2.92;;;8.90;59.80;;;;;;5040327;28;20028;-61
2021/05/03 00:20:19;;;;;;;4.45;2.75;;;9.00;59.80;;;;;;5047758;28;20035;-61
2021/05/03 00:22:49;;;;;;;4.47;2.50;;;9.10;59.90;;;;;;5059693;28;20131;-61
2021/05/03 00:25:17;;;;;;;5.72;3.10;;;9.10;59.80;;;;;;5069051;28;20047;-62
2021/05/03 00:27:44;;;;;;;4.53;3.35;;;9.30;59.80;;;;;;5057363;28;20046;-61
2021/05/03 00:30:15;;;;;;;7.20;3.40;;;9.30;59.70;;;;;;5048289;28;20050;-61
2021/05/03 00:32:44;;;;;;;3.70;3.05;;;9.30;59.60;;;;;;5047763;28;20667;-61
2021/05/03 00:35:10;;;;;;;4.55;3.35;;;9.40;59.60;;;;;;5050901;28;20494;-62
2021/05/03 00:37:38;;;;;;;6.85;3.30;;;9.40;59.50;;;;;;5042383;28;20040;-61
2021/05/03 00:40:05;;;;;;;3.72;2.90;;;9.40;59.30;;;;;;5058602;28;20032;-61
2021/05/03 00:42:33;;;;;;;7.07;2.90;;;9.50;59.30;;;;;;5068003;28;20036;-61
2021/05/03 00:45:09;;;;;;;4.60;2.60;;;9.40;59.00;;;;;;5046240;28;20043;-61
2021/05/03 00:47:38;;;;;;;4.05;2.78;;;9.40;58.80;;;;;;5040101;28;20036;-61
2021/05/03 00:50:06;;;;;;;5.03;2.80;;;9.30;58.70;;;;;;5044192;28;20028;-61
2021/05/03 00:52:32;;;;;;;4.90;3.30;;;9.30;58.80;;;;;;5026314;28;20032;-62
2021/05/03 00:54:58;;;;;;;3.92;2.78;;;9.20;58.80;;;;;;5060817;28;20029;-62
2021/05/03 00:57:24;;;;;;;6.63;3.20;;;9.20;59.00;;;;;;5046062;28;20437;-61
2021/05/03 00:59:50;;;;;;;5.60;3.20;;;9.20;59.30;;;;;;5044199;28;20078;-61
2021/05/03 01:02:15;;;;;;;4.18;3.13;;;9.20;59.40;;;;;;5040026;28;20059;-61
2021/05/03 01:04:41;;;;;;;5.72;3.03;;;9.30;59.40;;;;;;5041067;28;20036;-61
2021/05/03 01:07:07;;;;;;;4.15;3.10;;;9.30;59.40;;;;;;5042392;28;20033;-61
2021/05/03 01:09:33;;;;;;;8.27;3.65;;;9.30;59.20;;;;;;5043931;28;20036;-61
2021/05/03 01:12:04;;;;;;;8.02;3.47;;;9.20;59.00;;;;;;5061346;28;20634;-61
2021/05/03 01:14:32;;;;;;;5.80;3.25;;;9.20;59.10;;;;;;5033591;28;20070;-61
2021/05/03 01:17:00;;;;;;;4.72;3.60;;;9.20;59.20;;;;;;5058473;28;20028;-61
2021/05/03 01:19:28;;;;;;;8.13;3.65;;;9.20;59.20;;;;;;5060746;28;20031;-62
2021/05/03 01:21:54;;;;;;;6.65;3.70;;;9.20;59.10;;;;;;5060783;28;20124;-62
2021/05/03 01:24:21;;;;;;;6.50;3.90;;;9.20;59.00;;;;;;5063588;28;20155;-62
2021/05/03 01:26:47;;;;;;;7.45;3.97;;;9.10;59.00;;;;;;5060612;28;20036;-61
2021/05/03 01:29:14;;;;;;;9.02;3.85;;;9.00;58.80;;;;;;5062013;28;20036;-62
2021/05/03 01:31:40;;;;;;;7.68;4.38;;;9.00;59.00;;;;;;5063305;28;20044;-61
2021/05/03 01:34:09;;;;;;;7.50;4.25;;;9.00;59.10;;;;;;5064956;28;20063;-61
2021/05/03 01:36:36;;;;;;;9.48;4.65;;;9.00;59.20;;;;;;5054303;28;20114;-61
2021/05/03 01:39:06;;;;;;;14.57;6.00;;;9.00;59.50;;;;;;5064556;28;20672;-61
2021/05/03 01:41:33;;;;;;;10.50;5.45;;;9.00;59.70;;;;;;5069261;28;20118;-61
2021/05/03 01:44:05;;;;;;;12.85;5.65;;;9.10;59.90;;;;;;5072873;28;20039;-62
2021/05/03 01:46:33;;;;;;;8.70;5.47;;;9.10;59.70;;;;;;5059810;28;20052;-61
2021/05/03 01:49:03;;;;;;;9.43;5.47;;;9.10;59.50;;;;;;5046665;28;20115;-61
2021/05/03 01:51:30;;;;;;;9.43;5.43;;;9.00;59.30;;;;;;5069115;28;20036;-61
2021/05/03 01:53:56;;;;;;;11.75;5.20;;;9.00;59.40;;;;;;5071228;28;20047;-61
2021/05/03 01:56:26;;;;;;;11.90;5.95;;;9.00;59.30;;;;;;5069631;28;20070;-61
2021/05/03 01:58:52;;;;;;;10.63;5.53;;;8.90;59.30;;;;;;5066150;28;20032;-61
2021/05/03 02:01:18;;;;;;;9.80;6.10;;;8.90;59.50;;;;;;5071572;28;20060;-61
2021/05/03 02:03:49;;;;;;;11.60;5.97;;;8.90;59.60;;;;;;5070119;28;20929;-62
2021/05/03 02:06:20;;;;;;;7.30;5.38;;;8.90;59.60;;;;;;5071987;28;20052;-62
2021/05/03 02:08:47;;;;;;;11.10;6.38;;;8.90;59.40;;;;;;5054130;28;20036;-61
2021/05/03 02:11:13;;;;;;;10.90;5.82;;;8.90;59.30;;;;;;5060563;28;20051;-61
2021/05/03 02:13:46;;;;;;;11.75;6.15;;;8.80;59.10;;;;;;5070722;28;20669;-62
2021/05/03 02:16:12;;;;;;;15.63;6.15;;;8.70;59.20;;;;;;5071688;28;20078;-61
2021/05/03 02:18:37;;;;;;;11.07;5.65;;;8.70;59.30;;;;;;5065804;28;20057;-61
2021/05/03 02:21:05;;;;;;;13.30;7.00;;;8.70;59.50;;;;;;5062024;28;20063;-61
2021/05/03 02:23:35;;;;;;;15.82;7.45;;;8.70;59.60;;;;;;5067530;28;20128;-61
2021/05/03 02:26:03;;;;;;;12.43;6.32;;;8.60;59.70;;;;;;5075423;28;20074;-61
2021/05/03 02:28:28;;;;;;;13.85;6.93;;;8.70;59.80;;;;;;5041842;28;20038;-61
2021/05/03 02:30:56;;;;;;;12.75;6.93;;;8.60;59.70;;;;;;5062513;28;20032;-61
2021/05/03 02:33:22;;;;;;;11.07;6.65;;;8.60;59.70;;;;;;5065089;28;20032;-61
2021/05/03 02:35:49;;;;;;;16.77;6.75;;;8.60;60.20;;;;;;5065464;28;20107;-61
2021/05/03 02:38:15;;;;;;;16.77;7.32;;;8.60;59.70;;;;;;5065450;28;20040;-61
2021/05/03 02:40:41;;;;;;;17.08;7.45;;;8.60;59.80;;;;;;5069153;28;20047;-61
2021/05/03 02:43:08;;;;;;;17.13;7.75;;;8.50;59.80;;;;;;5055572;28;20071;-61
2021/05/03 02:45:35;;;;;;;12.18;7.20;;;8.50;59.90;;;;;;5063777;28;20047;-61
2021/05/03 02:48:04;;;;;;;13.65;7.18;;;8.50;60.10;;;;;;5046779;28;20064;-61
2021/05/03 02:50:34;;;;;;;11.63;6.80;;;8.50;59.90;;;;;;5060516;28;20043;-61
2021/05/03 02:53:00;;;;;;;15.20;8.02;;;8.60;59.90;;;;;;5068172;28;20116;-61
2021/05/03 02:55:26;;;;;;;14.13;7.38;;;8.50;59.70;;;;;;5064841;28;20028;-61
2021/05/03 02:57:51;;;;;;;12.52;7.15;;;8.50;59.60;;;;;;5058578;28;20154;-61
2021/05/03 03:00:29;;;;;;;13.27;7.40;;;8.40;59.60;;;;;;5061075;28;20508;-61
2021/05/03 03:02:57;;;;;;;12.82;6.63;;;8.40;59.60;;;;;;5068112;28;20735;-61
2021/05/03 03:05:23;;;;;;;14.60;7.47;;;8.30;59.60;;;;;;5064525;28;20118;-61
2021/05/03 03:07:50;;;;;;;10.77;6.75;;;8.30;59.60;;;;;;5046213;28;20066;-61
2021/05/03 03:10:18;;;;;;;12.32;7.18;;;8.30;59.60;;;;;;5068371;28;20086;-61
2021/05/03 03:12:45;;;;;;;15.60;7.13;;;8.20;59.60;;;;;;5063505;28;20036;-61
2021/05/03 03:15:12;;;;;;;11.32;7.13;;;8.20;59.60;;;;;;5067690;28;20040;-61
2021/05/03 03:17:38;;;;;;;17.13;7.25;;;8.20;59.60;;;;;;5061585;28;20036;-60
2021/05/03 03:20:05;;;;;;;20.63;7.80;;;8.10;60.00;;;;;;5057235;28;20544;-61
2021/05/03 03:22:32;;;;;;;14.60;7.18;;;8.10;59.50;;;;;;5062789;28;20036;-62
2021/05/03 03:25:00;;;;;;;13.90;6.97;;;8.10;59.50;;;;;;5064366;28;20683;-61
2021/05/03 03:27:31;;;;;;;12.65;6.97;;;8.00;59.40;;;;;;5065308;28;20040;-60
2021/05/03 03:29:57;;;;;;;13.60;7.20;;;8.00;59.40;;;;;;5059667;28;20056;-61
2021/05/03 03:32:27;;;;;;;12.93;6.65;;;8.00;59.40;;;;;;5062402;28;20044;-61
2021/05/03 03:34:53;;;;;;;10.18;6.40;;;7.90;59.30;;;;;;5065193;28;20039;-61
2021/05/03 03:37:18;;;;;;;11.52;6.65;;;7.80;59.20;;;;;;5044451;28;20282;-61
2021/05/03 03:39:44;;;;;;;16.92;6.78;;;7.80;59.20;;;;;;5058507;28;20051;-61
2021/05/03 03:42:15;;;;;;;13.75;6.68;;;7.80;59.20;;;;;;5047030;28;20028;-61
2021/05/03 03:44:43;;;;;;;16.13;6.65;;;7.70;59.20;;;;;;5066663;28;20090;-61
2021/05/03 03:47:13;;;;;;;16.17;6.75;;;7.70;59.30;;;;;;5060590;28;20052;-61
2021/05/03 03:49:43;;;;;;;14.00;6.72;;;7.60;59.30;;;;;;5062921;28;20094;-62
2021/05/03 03:52:09;;;;;;;12.80;7.57;;;7.60;59.30;;;;;;5059077;28;20098;-62
2021/05/03 03:54:39;;;;;;;14.98;7.57;;;7.50;59.30;;;;;;5065738;28;20501;-62
2021/05/03 03:57:09;;;;;;;17.38;7.13;;;7.50;59.50;;;;;;5060587;28;20044;-61
2021/05/03 03:59:39;;;;;;;14.13;7.40;;;7.50;59.50;;;;;;5060474;28;20482;-62
2021/05/03 04:02:06;;;;;;;16.00;7.82;;;7.50;59.60;;;;;;5038897;28;20059;-62
2021/05/03 04:04:32;;;;;;;20.08;8.30;;;7.50;59.80;;;;;;5040683;28;20039;-61
2021/05/03 04:07:05;;;;;;;14.05;7.45;;;7.50;59.80;;;;;;5043486;28;20037;-61
2021/05/03 04:09:48;;;;;;;18.67;8.52;;;7.50;59.90;;;;;;5035849;28;20040;-62
2021/05/03 04:25:38;;;;;;;14.13;7.70;;;7.60;60.20;;;;;;5042895;28;20051;-61
2021/05/03 04:28:07;;;;;;;15.52;8.18;;;7.60;60.30;;;;;;5041135;28;20040;-62
2021/05/03 04:30:36;;;;;;;16.63;8.38;;;7.70;60.50;;;;;;5033735;28;20044;-62
2021/05/03 04:33:04;;;;;;;18.30;8.20;;;7.80;60.80;;;;;;5037691;28;20930;-62
2021/05/03 04:35:33;;;;;;;17.35;8.77;;;7.80;61.00;;;;;;5027515;28;20063;-61
2021/05/03 04:37:59;;;;;;;19.83;9.13;;;8.00;61.20;;;;;;5027543;28;20044;-62
2021/05/03 04:40:27;;;;;;;18.63;8.68;;;8.10;61.30;;;;;;5056679;28;20053;-61
2021/05/03 04:42:52;;;;;;;17.50;8.98;;;8.30;61.40;;;;;;5055373;28;20051;-61
2021/05/03 04:45:20;;;;;;;17.42;8.95;;;8.40;61.40;;;;;;5058608;28;20671;-62
2021/05/03 04:47:46;;;;;;;23.60;9.45;;;8.50;61.30;;;;;;5052297;28;20051;-62
2021/05/03 04:50:12;;;;;;;17.15;8.68;;;8.60;61.30;;;;;;5048346;28;20040;-62
2021/05/03 04:52:37;;;;;;;18.73;8.73;;;8.70;61.40;;;;;;5057025;28;20028;-62
2021/05/03 04:55:05;;;;;;;24.48;9.45;;;8.80;61.30;;;;;;5047123;28;20032;-61
2021/05/03 04:57:34;;;;;;;18.35;8.85;;;8.90;61.30;;;;;;5067904;28;20114;-62
2021/05/03 05:00:02;;;;;;;20.42;8.52;;;9.00;61.30;;;;;;5061722;28;20032;-62
2021/05/03 05:02:28;;;;;;;16.30;7.75;;;9.10;61.30;;;;;;5053292;28;20493;-62
2021/05/03 05:04:57;;;;;;;17.63;8.55;;;9.10;61.20;;;;;;5047755;28;20077;-62
2021/05/03 05:07:23;;;;;;;15.68;8.20;;;9.20;61.10;;;;;;5059031;28;20055;-62
2021/05/03 05:09:51;;;;;;;15.05;8.20;;;9.30;61.20;;;;;;5065508;28;20036;-62
2021/05/03 05:12:16;;;;;;;12.05;7.18;;;9.30;61.00;;;;;;5032905;28;20138;-62
2021/05/03 05:14:44;;;;;;;15.63;8.38;;;9.30;61.00;;;;;;5047395;28;20037;-62
2021/05/03 05:17:12;;;;;;;11.60;7.30;;;9.40;61.10;;;;;;5046224;28;20075;-62
2021/05/03 05:19:40;;;;;;;16.55;8.15;;;9.40;61.20;;;;;;5042536;28;20041;-62
2021/05/03 05:22:06;;;;;;;11.98;7.13;;;9.50;61.20;;;;;;5030326;28;20082;-62
2021/05/03 05:24:35;;;;;;;14.15;7.20;;;9.50;61.10;;;;;;5058264;28;20032;-62
2021/05/03 05:27:03;;;;;;;13.68;7.85;;;9.60;61.10;;;;;;5060434;28;20037;-62
2021/05/03 05:29:31;;;;;;;17.48;7.30;;;9.60;61.10;;;;;;5044183;28;20044;-62
2021/05/03 05:31:57;;;;;;;12.32;6.97;;;9.70;61.10;;;;;;5037882;28;20041;-62
2021/05/03 05:34:24;;;;;;;13.98;6.78;;;9.80;61.10;;;;;;5047986;28;20169;-63
2021/05/03 05:36:52;;;;;;;12.02;7.13;;;9.80;61.20;;;;;;5048036;28;20037;-62
2021/05/03 05:39:22;;;;;;;14.55;6.97;;;9.90;61.30;;;;;;5050468;28;20465;-61
2021/05/03 05:41:50;;;;;;;11.82;7.32;;;10.10;61.30;;;;;;5055874;28;20047;-62
2021/05/03 05:44:16;;;;;;;11.15;6.68;;;10.20;61.20;;;;;;5058294;28;20355;-62
2021/05/03 05:46:52;;;;;;;11.18;7.15;;;10.30;61.00;;;;;;5033438;28;20524;-63
2021/05/03 05:49:20;;;;;;;10.82;7.20;;;10.40;60.80;;;;;;5032118;28;20089;-63
2021/05/03 05:51:45;;;;;;;10.77;6.80;;;10.50;60.50;;;;;;5034235;28;20079;-63
2021/05/03 05:54:13;;;;;;;14.35;6.90;;;10.50;60.20;;;;;;5044347;28;20041;-63
2021/05/03 05:56:42;;;;;;;11.07;7.00;;;10.50;60.10;;;;;;5028950;28;20045;-63
2021/05/03 05:59:08;;;;;;;14.18;7.40;;;10.50;59.90;;;;;;5029388;28;20037;-63
2021/05/03 06:01:34;;;;;;;12.02;6.35;;;10.50;59.70;;;;;;5028863;28;20679;-63
2021/05/03 06:04:02;;;;;;;13.05;6.72;;;10.50;59.80;;;;;;5034926;28;20529;-63
2021/05/03 06:06:27;;;;;;;9.30;6.55;;;10.50;59.80;;;;;;5033669;28;20520;-63
2021/05/03 06:08:55;;;;;;;17.88;7.25;;;10.50;59.70;;;;;;5028652;28;20037;-61
2021/05/03 06:11:22;;;;;;;14.95;7.22;;;10.40;59.70;;;;;;5063587;28;20100;-61
2021/05/03 06:13:47;;;;;;;13.38;7.80;;;10.40;59.70;;;;;;5060507;28;20044;-61
2021/05/03 06:16:13;;;;;;;13.35;8.23;;;10.40;59.70;;;;;;5056111;28;20852;-61
2021/05/03 06:18:39;;;;;;;12.70;7.78;;;10.40;59.80;;;;;;5050929;28;20066;-61
2021/05/03 06:21:05;;;;;;;11.18;7.57;;;10.40;59.80;;;;;;5068777;28;20036;-62
2021/05/03 06:23:30;;;;;;;13.23;7.70;;;10.30;59.90;;;;;;5062761;28;20639;-62
2021/05/03 06:25:56;;;;;;;16.42;8.50;;;10.30;59.90;;;;;;5064307;28;20127;-63
2021/05/03 06:28:22;;;;;;;12.40;8.18;;;10.30;60.10;;;;;;5055475;28;20040;-62
2021/05/03 06:30:54;;;;;;;12.43;7.50;;;10.40;60.20;;;;;;5055236;28;21970;-63
2021/05/03 06:33:22;;;;;;;16.73;8.18;;;10.40;60.20;;;;;;5064097;28;20127;-63
2021/05/03 06:35:53;;;;;;;12.60;7.38;;;10.40;60.20;;;;;;5061648;28;20640;-63
2021/05/03 06:38:21;;;;;;;13.25;8.10;;;10.40;60.20;;;;;;5059327;28;20110;-63
2021/05/03 06:40:47;;;;;;;20.40;8.10;;;10.40;60.40;;;;;;5064482;28;20343;-62
2021/05/03 06:43:15;;;;;;;12.40;7.93;;;10.40;60.40;;;;;;5061207;28;20136;-63
2021/05/03 06:45:40;;;;;;;16.77;8.50;;;10.40;60.40;;;;;;5058193;28;20040;-62
2021/05/03 06:48:08;;;;;;;12.10;7.95;;;10.40;60.60;;;;;;5039300;28;20462;-62
2021/05/03 06:50:37;;;;;;;11.50;8.07;;;10.40;60.60;;;;;;5039082;28;20131;-63
2021/05/03 06:53:05;;;;;;;14.90;9.15;;;10.40;60.60;;;;;;5035018;28;20041;-63
2021/05/03 06:55:33;;;;;;;12.60;8.30;;;10.40;60.60;;;;;;5019528;28;20070;-63
2021/05/03 06:57:59;;;;;;;14.60;8.90;;;10.50;60.60;;;;;;5028119;28;20056;-63
2021/05/03 07:00:28;;;;;;;17.52;9.40;;;10.50;60.80;;;;;;5015691;28;20072;-62
2021/05/03 07:02:54;;;;;;;13.88;9.70;;;10.50;60.90;;;;;;5009545;28;20151;-63
2021/05/03 07:05:19;;;;;;;13.93;8.85;;;10.60;60.90;;;;;;5028721;28;20123;-63
2021/05/03 07:07:50;;;;;;;15.93;8.50;;;10.60;60.90;;;;;;5027174;28;20068;-63
2021/05/03 07:10:15;;;;;;;13.43;8.88;;;10.60;60.80;;;;;;5030272;28;20158;-63
2021/05/03 07:12:48;;;;;;;14.65;9.38;;;10.60;60.80;;;;;;5057537;28;20564;-63
2021/05/03 07:15:17;;;;;;;14.18;8.80;;;10.60;60.90;;;;;;5063074;28;20032;-63
2021/05/03 07:17:43;;;;;;;14.13;9.43;;;10.60;60.90;;;;;;5056379;28;20032;-63
2021/05/03 07:20:10;;;;;;;17.10;9.38;;;10.60;61.00;;;;;;5057483;28;20040;-63
2021/05/03 07:22:38;;;;;;;17.35;10.05;;;10.70;60.90;;;;;;5062130;28;20097;-63
2021/05/03 07:25:07;;;;;;;17.83;9.82;;;10.70;60.80;;;;;;5064145;28;20484;-63
2021/05/03 07:27:33;;;;;;;15.35;9.93;;;10.70;60.60;;;;;;5054960;28;20036;-64
2021/05/03 07:29:58;;;;;;;19.33;10.10;;;10.70;60.60;;;;;;5057847;28;20040;-63
2021/05/03 07:32:26;;;;;;;16.85;10.07;;;10.70;60.60;;;;;;5055440;28;20490;-63
2021/05/03 07:34:52;;;;;;;16.45;9.23;;;10.70;60.80;;;;;;5057465;28;20040;-63
2021/05/03 07:37:18;;;;;;;16.33;10.48;;;10.70;60.80;;;;;;5064909;28;20227;-65
2021/05/03 07:39:44;;;;;;;16.13;9.80;;;10.70;60.90;;;;;;5054653;28;20038;-64
2021/05/03 07:42:10;;;;;;;22.83;10.55;;;10.70;60.90;;;;;;5055576;28;20048;-64
2021/05/03 07:44:40;;;;;;;22.67;11.57;;;10.70;60.90;;;;;;5054858;28;20086;-64
2021/05/03 07:47:06;;;;;;;18.58;11.50;;;10.70;60.90;;;;;;5055152;28;20036;-64
2021/05/03 07:49:38;;;;;;;19.30;11.20;;;10.70;60.90;;;;;;5061299;28;20040;-64
2021/05/03 07:52:04;;;;;;;23.65;11.80;;;10.70;60.90;;;;;;5061885;28;20827;-64
2021/05/03 07:54:30;;;;;;;19.33;12.27;;;10.70;61.20;;;;;;5044746;28;20047;-64
2021/05/03 07:56:56;;;;;;;21.88;13.07;;;10.70;61.50;;;;;;5032777;28;20040;-64
2021/05/03 07:59:21;;;;;;;30.17;13.32;;;10.80;61.80;;;;;;5035338;28;23775;-65
2021/05/03 08:01:49;;;;;;;22.38;14.00;;;11.00;62.00;;;;;;5054083;28;20071;-64
2021/05/03 08:04:15;;;;;;;23.80;13.98;;;11.10;61.90;;;;;;5063299;28;20116;-64
2021/05/03 08:06:45;;;;;;;20.23;13.63;;;11.20;61.60;;;;;;5037459;28;20045;-64
2021/05/03 08:09:11;;;;;;;22.05;12.90;;;11.30;61.60;;;;;;5044391;28;20143;-64
2021/05/03 08:11:43;;;;;;;27.40;14.50;;;11.30;61.60;;;;;;5046493;28;20354;-64
2021/05/03 08:14:10;;;;;;;21.13;13.45;;;11.40;61.60;;;;;;5039200;28;21522;-64
2021/05/03 08:16:37;;;;;;;24.40;13.20;;;11.50;61.40;;;;;;5037402;28;20059;-63
2021/05/03 08:19:03;;;;;;;20.70;13.73;;;11.60;61.40;;;;;;5030941;28;20094;-64
2021/05/03 08:21:29;;;;;;;21.55;13.57;;;11.60;61.00;;;;;;5049015;28;20052;-64
2021/05/03 08:23:57;;;;;;;20.13;12.82;;;11.70;60.90;;;;;;5052344;28;20111;-64
2021/05/03 08:26:24;;;;;;;18.80;13.27;;;11.70;60.80;;;;;;5038000;28;20044;-64
2021/05/03 08:28:50;;;;;;;19.83;12.60;;;11.70;60.50;;;;;;5047462;28;20055;-64
2021/05/03 08:31:18;;;;;;;20.20;13.18;;;11.70;60.10;;;;;;5052278;28;20047;-64
2021/05/03 08:33:44;;;;;;;21.15;13.05;;;11.60;60.00;;;;;;5034319;28;20074;-64
2021/05/03 08:36:09;;;;;;;21.58;13.77;;;11.60;60.00;;;;;;5055585;28;20844;-64
2021/05/03 08:38:37;;;;;;;22.52;13.23;;;11.50;60.00;;;;;;5047713;28;20334;-64
2021/05/03 08:41:05;;;;;;;23.00;14.25;;;11.50;60.00;;;;;;5055856;28;20113;-64
2021/05/03 08:43:39;;;;;;;20.67;13.63;;;11.50;60.10;;;;;;5037372;28;20337;-64
2021/05/03 08:46:08;;;;;;;23.65;14.65;;;11.40;60.30;;;;;;5051909;28;20070;-64
2021/05/03 08:48:44;;;;;;;25.45;15.52;;;11.40;60.30;;;;;;5055251;28;20098;-63
2021/05/03 08:53:45;;;;;;;22.75;14.77;;;11.40;60.40;;;;;;5052530;28;20040;-65
2021/05/03 08:56:11;;;;;;;22.35;15.82;;;11.50;60.40;;;;;;5052186;28;20260;-63
2021/05/03 08:58:40;;;;;;;26.00;17.20;;;11.50;60.50;;;;;;5043854;28;20116;-63
2021/05/03 09:01:08;;;;;;;26.58;17.85;;;11.60;61.10;;;;;;5057466;28;20429;-63
2021/05/03 09:03:40;;;;;;;28.45;16.85;;;11.80;61.60;;;;;;5043647;28;20152;-63
2021/05/03 09:06:11;;;;;;;23.35;16.10;;;12.10;61.80;;;;;;5065373;28;20047;-63
2021/05/03 09:08:39;;;;;;;22.75;15.27;;;12.30;61.20;;;;;;5068716;28;20097;-64
2021/05/03 09:11:05;;;;;;;25.70;17.02;;;12.40;60.40;;;;;;5064418;28;20195;-63
2021/05/03 09:13:36;;;;;;;26.92;17.58;;;12.60;61.20;;;;;;5061227;28;20083;-64
2021/05/03 09:16:21;;;;;;;23.95;18.20;;;12.90;61.80;;;;;;5057627;28;20076;-64
2021/05/03 09:18:50;;;;;;;27.95;17.17;;;13.30;60.30;;;;;;5055708;28;20532;-64
2021/05/03 09:21:31;;;;;;;25.30;16.77;;;13.50;59.80;;;;;;5052774;28;20041;-64
2021/05/03 09:24:07;;;;;;;22.88;15.93;;;13.60;58.90;;;;;;5057084;28;20047;-64
2021/05/03 09:26:57;;;;;;;25.55;17.08;;;13.50;58.40;;;;;;5057540;28;20581;-63
2021/05/03 09:29:52;;;;;;;23.67;16.52;;;13.30;58.80;;;;;;5053205;28;20072;-63
2021/05/03 09:32:23;;;;;;;24.77;16.88;;;13.30;58.80;;;;;;5031075;28;20050;-63
2021/05/03 09:34:53;;;;;;;27.65;18.10;;;13.30;58.70;;;;;;5056170;28;20039;-63
2021/05/03 09:37:33;;;;;;;24.52;17.50;;;13.30;58.80;;;;;;5055957;28;20032;-64
2021/05/03 09:40:12;;;;;;;25.73;18.02;;;13.30;58.90;;;;;;5058728;28;20529;-63
2021/05/03 09:43:00;;;;;;;30.75;20.85;;;13.30;58.60;;;;;;5058162;28;20040;-64
2021/05/03 09:45:33;;;;;;;34.17;21.85;;;13.30;58.60;;;;;;5061361;28;20480;-64
2021/05/03 09:48:04;;;;;;;29.92;21.08;;;13.30;58.50;;;;;;5054734;28;20047;-63
2021/05/03 09:50:33;;;;;;;35.17;21.88;;;13.20;58.30;;;;;;5038193;28;20036;-64
2021/05/03 09:53:12;;;;;;;34.85;22.55;;;13.10;58.20;;;;;;5056736;28;20043;-64
2021/05/03 09:55:52;;;;;;;37.03;24.05;;;13.10;58.40;;;;;;5060965;28;20788;-64
2021/05/03 09:58:25;;;;;;;34.50;23.40;;;13.10;58.60;;;;;;5059869;28;20119;-64
2021/05/03 10:00:55;;;;;;;37.20;24.63;;;13.10;58.70;;;;;;5043333;28;20040;-63
2021/05/03 10:03:48;;;;;;;46.15;25.85;;;13.10;59.10;;;;;;5068435;28;20040;-65
2021/05/03 10:06:18;;;;;;;40.08;26.00;;;13.00;58.70;;;;;;5050047;28;20040;-64
2021/05/03 10:08:48;;;;;;;41.38;26.63;;;13.10;58.80;;;;;;5036657;28;20071;-64
2021/05/03 10:11:17;;;;;;;41.88;25.88;;;13.10;58.80;;;;;;5045694;28;20040;-64
2021/05/03 10:13:46;;;;;;;42.58;25.85;;;13.10;59.00;;;;;;5038333;28;20039;-64
2021/05/03 10:16:13;;;;;;;38.47;25.20;;;13.20;59.20;;;;;;5044797;28;20660;-64
2021/05/03 10:18:40;;;;;;;40.60;26.85;;;13.30;59.30;;;;;;5045848;28;20056;-64
2021/05/03 10:21:14;;;;;;;41.50;26.25;;;13.50;59.20;;;;;;5042285;28;21526;-64
2021/05/03 10:23:45;;;;;;;44.00;26.95;;;13.60;58.90;;;;;;5048071;28;20064;-64
2021/05/03 10:26:11;;;;;;;42.58;28.63;;;13.70;58.80;;;;;;5039814;28;20520;-65
2021/05/03 10:28:59;;;;;;;41.83;27.77;;;13.70;58.70;;;;;;5023204;28;20242;-64
2021/05/03 10:31:27;;;;;;;46.33;28.58;;;13.70;58.50;;;;;;5045711;28;20698;-64
2021/05/03 10:33:55;;;;;;;44.95;28.20;;;13.70;58.30;;;;;;5067416;28;20417;-64
2021/05/03 10:36:35;;;;;;;46.45;28.48;;;13.70;58.20;;;;;;5064326;28;20039;-65
2021/05/03 10:39:20;;;;;;;45.55;29.92;;;13.60;58.10;;;;;;5063520;28;20040;-65
2021/05/03 10:42:10;;;;;;;48.75;29.70;;;13.60;58.40;;;;;;5059993;28;20032;-64
2021/05/03 10:44:37;;;;;;;44.50;28.80;;;13.60;58.30;;;;;;5066287;28;20740;-64
2021/05/03 10:47:34;;;;;;;44.60;29.33;;;13.60;58.10;;;;;;5043982;28;20044;-64
2021/05/03 10:50:00;;;;;;;45.30;28.25;;;13.50;58.00;;;;;;5060173;28;20048;-64
2021/05/03 10:52:35;;;;;;;45.28;29.55;;;13.50;58.50;;;;;;5066207;28;20248;-64
2021/05/03 10:55:03;;;;;;;48.40;29.73;;;13.70;59.10;;;;;;5067728;28;20505;-64
2021/05/03 10:57:31;;;;;;;44.75;26.10;;;14.00;59.70;;;;;;5063546;28;20105;-64
2021/05/03 11:00:01;;;;;;;42.22;26.08;;;14.40;58.90;;;;;;5056116;28;20042;-65
2021/05/03 11:02:36;;;;;;;32.80;22.63;;;14.60;57.70;;;;;;5052354;28;20033;-64
2021/05/03 11:05:23;;;;;;;38.72;24.88;;;14.70;56.80;;;;;;5065680;28;20436;-64
2021/05/03 11:08:09;;;;;;;37.90;24.27;;;14.70;56.20;;;;;;5058153;28;20032;-64
2021/05/03 11:10:53;;;;;;;36.63;24.40;;;14.60;56.00;;;;;;5062712;28;20580;-64
2021/05/03 11:13:37;;;;;;;37.20;25.10;;;14.50;55.70;;;;;;5052796;28;20085;-64
2021/05/03 11:16:28;;;;;;;38.17;26.17;;;14.30;55.70;;;;;;5064000;28;20036;-64
2021/05/03 11:18:57;;;;;;;43.10;27.63;;;14.10;55.90;;;;;;5057876;28;20036;-64
2021/05/03 11:21:46;;;;;;;41.95;26.88;;;14.00;56.10;;;;;;5061097;28;20037;-65
2021/05/03 11:24:32;;;;;;;49.17;30.45;;;13.80;56.20;;;;;;5063721;28;20125;-66
2021/05/03 11:27:08;;;;;;;45.17;30.52;;;13.60;56.30;;;;;;5060097;28;20036;-66
2021/05/03 11:29:49;;;;;;;48.55;31.05;;;13.40;56.70;;;;;;5044457;28;20082;-66
2021/05/03 11:32:17;;;;;;;54.53;31.75;;;13.20;57.20;;;;;;5056585;28;20606;-66
2021/05/03 11:34:59;;;;;;;52.40;32.13;;;13.10;57.60;;;;;;5068034;28;20040;-65
2021/05/03 11:37:36;;;;;;;50.83;31.58;;;13.00;57.90;;;;;;5064860;28;20165;-65
2021/05/03 11:40:15;;;;;;;48.25;30.42;;;13.00;58.20;;;;;;5045235;28;20040;-66
2021/05/03 11:45:43;;;;;;;57.90;33.83;;;13.10;59.30;;;;;;5019822;28;20455;-65
2021/05/03 11:48:12;;;;;;;54.90;35.80;;;13.30;59.80;;;;;;5046683;28;20043;-64
2021/05/03 11:50:39;;;;;;;61.90;37.65;;;13.60;60.80;;;;;;5051375;28;20052;-64
2021/05/03 11:53:05;;;;;;;58.33;35.28;;;14.20;62.10;;;;;;5055655;28;20052;-64
2021/05/03 11:55:30;;;;;;;35.47;25.90;;;15.00;62.50;;;;;;5041270;28;20525;-65
2021/05/03 11:57:58;;;;;;;26.75;21.17;;;15.70;61.30;;;;;;5067224;28;20059;-64
2021/05/03 12:00:28;;;;;;;30.48;20.55;;;16.10;58.60;;;;;;5050735;28;20036;-65
2021/05/03 12:03:13;;;;;;;30.75;21.83;;;16.10;56.50;;;;;;5058356;28;20078;-64
2021/05/03 12:05:39;;;;;;;30.23;20.17;;;15.80;56.20;;;;;;5044521;28;20120;-64
2021/05/03 12:08:15;;;;;;;27.45;18.65;;;15.60;56.30;;;;;;5063308;28;20028;-64
2021/05/03 12:10:41;;;;;;;29.17;20.42;;;15.50;56.50;;;;;;5046379;28;20032;-64
2021/05/03 12:13:19;;;;;;;25.45;18.92;;;15.60;57.50;;;;;;5040386;28;20090;-64
2021/05/03 12:15:44;;;;;;;24.48;18.30;;;15.90;57.30;;;;;;5052567;28;20028;-64
2021/05/03 12:18:19;;;;;;;21.45;16.13;;;16.20;57.30;;;;;;5038080;28;20044;-64
2021/05/03 12:20:50;;;;;;;17.33;12.80;;;16.70;57.00;;;;;;5057015;28;20054;-64
2021/05/03 12:23:16;;;;;;;17.05;12.95;;;17.10;55.90;;;;;;5061937;28;20394;-64
2021/05/03 12:25:54;;;;;;;17.35;13.07;;;17.20;55.00;;;;;;5062414;28;20032;-64
2021/05/03 12:28:25;;;;;;;15.95;12.45;;;17.20;54.00;;;;;;5047028;28;20590;-64
2021/05/03 12:30:56;;;;;;;15.65;12.98;;;16.90;53.40;;;;;;5060304;28;20332;-64
2021/05/03 12:33:25;;;;;;;16.90;12.48;;;16.70;53.40;;;;;;5058248;28;20161;-63
2021/05/03 12:35:54;;;;;;;16.75;12.05;;;16.50;53.80;;;;;;5055291;28;20104;-64
2021/05/03 12:38:28;;;;;;;17.38;12.70;;;16.40;53.90;;;;;;5054766;28;20567;-64
2021/05/03 12:41:01;;;;;;;18.88;13.35;;;16.30;54.40;;;;;;5050011;28;20040;-65
2021/05/03 12:43:30;;;;;;;16.45;11.98;;;16.40;55.20;;;;;;5051789;28;20031;-65
2021/05/03 12:51:09;;;;;;;11.32;8.27;;;17.60;53.50;;;;;;5059454;28;20059;-63
2021/05/03 12:53:55;;;;;;;11.20;8.38;;;17.80;53.10;;;;;;5056244;28;21279;-63
2021/05/03 13:04:37;;;;;;;8.75;7.30;;;18.00;51.60;;;;;;5064241;28;20539;-64
2021/05/03 13:07:11;;;;;;;8.55;7.18;;;18.00;51.40;;;;;;5059823;28;20093;-64
2021/05/03 13:22:28;;;;;;;11.48;8.23;;;17.80;51.00;;;;;;5061056;28;20048;-64
2021/05/03 13:29:44;;;;;;;10.07;8.20;;;17.60;52.90;;;;;;5044229;28;20097;-64
2021/05/03 13:32:25;;;;;;;11.27;8.95;;;17.80;52.40;;;;;;5036083;28;20169;-64
2021/05/03 13:34:54;;;;;;;13.40;9.18;;;18.10;51.90;;;;;;5039911;28;20050;-64
2021/05/03 13:37:21;;;;;;;13.95;9.43;;;18.10;51.70;;;;;;5057265;28;20044;-64
2021/05/03 13:39:47;;;;;;;13.07;9.88;;;18.20;52.00;;;;;;5063238;28;20106;-64